createdAt,value
2022-10-17T00:01:37.861Z,17.10
2022-10-17T00:04:04.745Z,17.10
2022-10-17T00:06:31.504Z,17.00
2022-10-17T00:08:58.209Z,17.10
2022-10-17T00:11:26.554Z,17.10
2022-10-17T00:13:56.258Z,17.00
2022-10-17T00:16:28.715Z,17.30
2022-10-17T00:18:56.025Z,17.30
2022-10-17T00:21:23.905Z,17.40
2022-10-17T00:23:51.353Z,17.30
2022-10-17T00:26:19.268Z,17.40
2022-10-17T00:28:50.873Z,17.40
2022-10-17T00:31:19.909Z,17.30
2022-10-17T00:33:47.233Z,17.40
2022-10-17T00:36:25.191Z,17.40
2022-10-17T00:38:54.863Z,17.30
2022-10-17T00:41:25.385Z,17.30
2022-10-17T00:43:59.466Z,17.20
2022-10-17T00:46:44.527Z,17.20
2022-10-17T00:49:12.724Z,17.30
2022-10-17T00:51:59.739Z,17.30
2022-10-17T00:54:33.876Z,17.30
2022-10-17T00:57:01.285Z,17.20
2022-10-17T00:59:29.565Z,17.30
2022-10-17T01:02:09.667Z,17.40
2022-10-17T01:04:38.827Z,17.60
2022-10-17T01:07:05.548Z,17.50
2022-10-17T01:09:32.440Z,17.50
2022-10-17T01:12:20.802Z,17.50
2022-10-17T01:15:08.783Z,17.50
2022-10-17T01:18:00.079Z,17.50
2022-10-17T01:20:38.283Z,17.60
2022-10-17T01:23:24.077Z,17.60
2022-10-17T01:26:33.639Z,17.80
2022-10-17T01:29:19.425Z,17.80
2022-10-17T01:31:51.888Z,17.80
2022-10-17T01:34:36.162Z,17.70
2022-10-17T01:37:09.952Z,17.70
2022-10-17T01:39:58.288Z,17.60
2022-10-17T01:42:50.953Z,17.60
2022-10-17T01:45:32.230Z,17.70
2022-10-17T01:48:07.216Z,17.50
2022-10-17T01:50:42.487Z,17.40
2022-10-17T01:53:31.664Z,17.50
2022-10-17T01:56:02.079Z,17.60
2022-10-17T01:58:33.927Z,17.70
2022-10-17T02:01:05.142Z,17.60
2022-10-17T02:03:34.455Z,17.60
2022-10-17T02:06:01.294Z,17.60
2022-10-17T02:08:39.932Z,17.50
2022-10-17T02:11:14.098Z,17.60
2022-10-17T02:13:51.483Z,17.50
2022-10-17T02:16:43.022Z,17.30
2022-10-17T02:19:21.506Z,17.30
2022-10-17T02:21:53.925Z,17.10
2022-10-17T02:24:47.053Z,17.10
2022-10-17T02:27:43.789Z,17.30
2022-10-17T02:30:29.509Z,17.30
2022-10-17T02:33:03.315Z,17.20
2022-10-17T02:35:35.323Z,17.00
2022-10-17T02:38:03.747Z,17.00
2022-10-17T02:40:32.296Z,17.00
2022-10-17T02:43:01.074Z,16.80
2022-10-17T02:45:29.849Z,16.80
2022-10-17T02:48:03.454Z,16.80
2022-10-17T02:50:44.715Z,16.80
2022-10-17T02:53:28.139Z,16.70
2022-10-17T02:55:59.831Z,16.70
2022-10-17T02:58:32.858Z,16.70
2022-10-17T03:01:00.343Z,16.70
2022-10-17T03:03:29.811Z,16.70
2022-10-17T03:05:56.867Z,16.90
2022-10-17T03:08:24.402Z,16.90
2022-10-17T03:10:51.484Z,16.80
2022-10-17T03:13:18.910Z,17.00
2022-10-17T03:15:45.879Z,17.00
2022-10-17T03:18:12.825Z,17.10
2022-10-17T03:20:39.594Z,17.10
2022-10-17T03:23:06.369Z,17.00
2022-10-17T03:25:33.134Z,17.00
2022-10-17T03:28:01.636Z,16.90
2022-10-17T03:30:29.151Z,17.10
2022-10-17T03:32:58.083Z,17.00
2022-10-17T03:35:26.087Z,17.10
2022-10-17T03:37:55.035Z,17.20
2022-10-17T03:40:21.943Z,17.30
2022-10-17T03:42:48.638Z,17.40
2022-10-17T03:45:15.380Z,17.30
2022-10-17T03:47:42.234Z,17.30
2022-10-17T03:50:09.399Z,17.00
2022-10-17T03:52:36.112Z,17.10
2022-10-17T03:55:02.914Z,17.20
2022-10-17T03:57:29.810Z,17.30
2022-10-17T03:59:57.184Z,17.20
2022-10-17T04:02:23.938Z,17.40
2022-10-17T04:04:50.653Z,17.40
2022-10-17T04:07:17.447Z,17.40
2022-10-17T04:09:44.267Z,17.30
2022-10-17T04:12:10.965Z,17.30
2022-10-17T04:14:38.333Z,17.20
2022-10-17T04:17:05.322Z,17.30
2022-10-17T04:19:32.187Z,17.20
2022-10-17T04:21:58.978Z,17.20
2022-10-17T04:24:25.926Z,17.20
2022-10-17T04:26:52.748Z,17.10
2022-10-17T04:29:19.511Z,17.10
2022-10-17T04:31:46.278Z,17.00
2022-10-17T04:34:14.459Z,17.20
2022-10-17T04:36:41.266Z,17.00
2022-10-17T04:39:08.122Z,16.90
2022-10-17T04:41:34.925Z,17.00
2022-10-17T04:44:01.671Z,17.10
2022-10-17T04:46:28.447Z,17.00
2022-10-17T04:48:55.246Z,17.00
2022-10-17T04:51:24.543Z,17.00
2022-10-17T04:53:53.317Z,17.00
2022-10-17T04:56:23.317Z,17.10
2022-10-17T04:58:50.739Z,17.10
2022-10-17T05:01:20.026Z,17.10
2022-10-17T05:03:47.364Z,17.00
2022-10-17T05:06:17.188Z,16.90
2022-10-17T05:08:44.627Z,16.80
2022-10-17T05:11:19.951Z,16.70
2022-10-17T05:13:54.607Z,16.60
2022-10-17T05:16:21.938Z,16.70
2022-10-17T05:18:52.851Z,16.70
2022-10-17T05:21:21.139Z,16.70
2022-10-17T05:23:47.937Z,16.70
2022-10-17T05:26:14.708Z,16.60
2022-10-17T05:28:41.522Z,16.60
2022-10-17T05:31:10.542Z,16.60
2022-10-17T05:33:38.276Z,16.60
2022-10-17T05:36:06.176Z,16.60
2022-10-17T05:38:33.383Z,16.60
2022-10-17T05:41:01.531Z,16.60
2022-10-17T05:43:29.221Z,16.60
2022-10-17T05:45:56.362Z,16.60
2022-10-17T05:48:24.267Z,16.60
2022-10-17T05:53:49.243Z,16.50
2022-10-17T05:56:15.939Z,16.60
2022-10-17T05:58:49.921Z,16.60
2022-10-17T06:01:18.063Z,16.50
2022-10-17T06:03:44.801Z,16.70
2022-10-17T06:06:13.413Z,16.70
2022-10-17T06:08:40.356Z,16.50
2022-10-17T06:11:09.950Z,16.50
2022-10-17T06:13:38.194Z,16.60
2022-10-17T06:16:05.388Z,16.60
2022-10-17T06:18:32.694Z,16.70
2022-10-17T06:21:05.253Z,16.70
2022-10-17T06:23:32.431Z,16.70
2022-10-17T06:26:04.005Z,16.50
2022-10-17T06:28:31.271Z,16.50
2022-10-17T06:30:58.039Z,16.50
2022-10-17T06:33:25.109Z,16.50
2022-10-17T06:35:56.138Z,16.50
2022-10-17T06:38:23.236Z,16.70
2022-10-17T06:40:50.213Z,16.50
2022-10-17T06:43:17.090Z,16.60
2022-10-17T06:45:46.750Z,16.40
2022-10-17T06:48:14.294Z,16.40
2022-10-17T06:50:41.457Z,16.70
2022-10-17T06:53:08.188Z,16.70
2022-10-17T06:55:34.962Z,16.70
2022-10-17T06:58:01.693Z,16.50
2022-10-17T07:00:28.481Z,16.50
2022-10-17T07:02:55.197Z,16.60
2022-10-17T07:05:21.910Z,16.40
2022-10-17T07:07:51.079Z,16.40
2022-10-17T07:10:18.940Z,16.40
2022-10-17T07:12:45.906Z,16.70
2022-10-17T07:15:13.238Z,16.60
2022-10-17T07:17:39.973Z,16.60
2022-10-17T07:20:07.281Z,16.80
2022-10-17T07:22:34.095Z,16.80
2022-10-17T07:25:00.848Z,16.90
2022-10-17T07:27:28.036Z,16.90
2022-10-17T07:29:54.995Z,17.00
2022-10-17T07:32:21.859Z,17.00
2022-10-17T07:34:48.666Z,17.00
2022-10-17T07:37:15.447Z,17.10
2022-10-17T07:39:42.286Z,16.80
2022-10-17T07:42:09.036Z,16.70
2022-10-17T07:44:35.988Z,16.80
2022-10-17T07:47:02.808Z,16.70
2022-10-17T07:49:30.175Z,16.60
2022-10-17T07:51:57.945Z,16.50
2022-10-17T07:54:24.770Z,16.70
2022-10-17T07:56:51.620Z,16.70
2022-10-17T07:59:19.164Z,16.60
2022-10-17T08:01:46.132Z,16.70
2022-10-17T08:04:13.202Z,16.50
2022-10-17T08:06:39.942Z,16.60
2022-10-17T08:09:06.716Z,16.50
2022-10-17T08:11:33.755Z,16.70
2022-10-17T08:14:00.858Z,16.70
2022-10-17T08:16:27.710Z,16.70
2022-10-17T08:18:54.476Z,16.80
2022-10-17T08:21:21.229Z,16.90
2022-10-17T08:23:50.691Z,16.50
2022-10-17T08:26:19.986Z,16.50
2022-10-17T08:28:49.612Z,16.50
2022-10-17T08:31:19.158Z,16.50
2022-10-17T08:33:47.839Z,16.70
2022-10-17T08:36:17.894Z,16.90
2022-10-17T08:38:51.641Z,17.00
2022-10-17T08:41:36.103Z,16.70
2022-10-17T08:44:09.112Z,16.60
2022-10-17T08:46:41.734Z,16.80
2022-10-17T08:49:19.631Z,17.10
2022-10-17T08:51:59.195Z,16.90
2022-10-17T08:54:43.051Z,16.80
2022-10-17T08:57:14.723Z,16.80
2022-10-17T08:59:43.999Z,16.90
2022-10-17T09:02:45.453Z,16.70
2022-10-17T09:05:43.164Z,16.50
2022-10-17T09:08:45.992Z,16.50
2022-10-17T09:11:30.622Z,16.80
2022-10-17T09:14:19.644Z,16.80
2022-10-17T09:16:49.477Z,16.90
2022-10-17T09:19:22.909Z,17.00
2022-10-17T09:22:03.258Z,17.10
2022-10-17T09:24:51.230Z,17.20
2022-10-17T09:27:36.544Z,17.10
2022-10-17T09:30:43.640Z,16.70
2022-10-17T09:33:23.357Z,16.80
2022-10-17T09:36:02.757Z,16.70
2022-10-17T09:38:38.888Z,16.90
2022-10-17T09:41:39.232Z,16.90
2022-10-17T09:44:29.427Z,16.90
2022-10-17T09:47:05.428Z,17.00
2022-10-17T09:49:36.085Z,16.90
2022-10-17T09:52:06.595Z,17.10
2022-10-17T09:55:05.412Z,17.20
2022-10-17T09:57:54.670Z,17.30
2022-10-17T10:00:26.408Z,17.60
2022-10-17T10:03:17.729Z,17.60
2022-10-17T10:06:05.929Z,17.80
2022-10-17T10:08:36.176Z,17.70
2022-10-17T10:11:07.928Z,17.40
2022-10-17T10:13:37.173Z,17.40
2022-10-17T10:16:33.055Z,17.40
2022-10-17T10:18:59.880Z,17.20
2022-10-17T10:21:28.012Z,17.60
2022-10-17T10:24:14.089Z,17.60
2022-10-17T10:26:49.043Z,17.60
2022-10-17T10:29:32.286Z,17.80
2022-10-17T10:32:16.647Z,17.90
2022-10-17T10:35:18.987Z,17.60
2022-10-17T10:37:53.201Z,17.70
2022-10-17T10:40:26.199Z,17.70
2022-10-17T10:43:04.017Z,17.80
2022-10-17T10:45:53.384Z,17.80
2022-10-17T10:48:21.559Z,17.80
2022-10-17T10:51:19.928Z,17.90
2022-10-17T10:54:06.136Z,18.10
2022-10-17T10:57:04.015Z,18.10
2022-10-17T10:59:56.147Z,18.10
2022-10-17T11:02:28.009Z,18.00
2022-10-17T11:04:59.827Z,17.90
2022-10-17T11:07:38.929Z,18.30
2022-10-17T11:10:33.729Z,18.10
2022-10-17T11:13:29.250Z,17.90
2022-10-17T11:16:25.332Z,18.00
2022-10-17T11:19:13.704Z,18.20
2022-10-17T11:22:12.653Z,18.70
2022-10-17T11:25:14.900Z,19.00
2022-10-17T11:27:41.832Z,19.20
2022-10-17T11:30:15.500Z,19.20
2022-10-17T11:32:59.910Z,19.00
2022-10-17T11:35:39.885Z,18.80
2022-10-17T11:38:22.208Z,18.80
2022-10-17T11:40:52.326Z,18.70
2022-10-17T11:43:35.232Z,19.00
2022-10-17T11:46:10.532Z,19.30
2022-10-17T11:48:49.049Z,18.90
2022-10-17T11:54:25.954Z,19.50
2022-10-17T11:57:04.857Z,20.00
2022-10-17T12:00:02.319Z,20.00
2022-10-17T12:02:42.568Z,19.80
2022-10-17T12:05:21.311Z,20.00
2022-10-17T12:08:05.671Z,19.90
2022-10-17T12:11:00.821Z,20.10
2022-10-17T12:13:33.664Z,20.60
2022-10-17T12:16:19.378Z,20.90
2022-10-17T12:19:06.860Z,21.10
2022-10-17T12:21:58.466Z,21.00
2022-10-17T12:24:36.270Z,21.70
2022-10-17T12:27:37.217Z,21.50
2022-10-17T12:30:13.202Z,20.70
2022-10-17T12:33:37.636Z,20.80
2022-10-17T12:36:22.266Z,20.90
2022-10-17T12:39:14.581Z,20.80
2022-10-17T12:41:42.278Z,21.30
2022-10-17T12:44:15.301Z,21.40
2022-10-17T12:46:45.240Z,21.40
2022-10-17T12:49:39.347Z,21.80
2022-10-17T12:52:15.141Z,21.60
2022-10-17T12:55:00.311Z,21.70
2022-10-17T12:57:34.190Z,21.90
2022-10-17T13:00:19.531Z,22.20
2022-10-17T13:02:47.172Z,21.90
2022-10-17T13:05:30.504Z,22.10
2022-10-17T13:08:00.346Z,22.10
2022-10-17T13:10:30.954Z,21.80
2022-10-17T13:13:17.209Z,21.90
2022-10-17T13:15:52.855Z,21.40
2022-10-17T13:18:23.604Z,21.70
2022-10-17T13:21:21.881Z,21.40
2022-10-17T13:23:51.075Z,21.10
2022-10-17T13:26:21.694Z,21.80
2022-10-17T13:29:16.360Z,21.90
2022-10-17T13:31:44.778Z,21.70
2022-10-17T13:34:21.083Z,22.00
2022-10-17T13:36:51.235Z,22.20
2022-10-17T13:39:32.400Z,22.40
2022-10-17T13:42:25.679Z,22.60
2022-10-17T13:44:53.187Z,22.50
2022-10-17T13:47:25.844Z,22.30
2022-10-17T13:49:55.467Z,21.90
2022-10-17T13:52:26.894Z,22.50
2022-10-17T13:54:57.498Z,22.30
2022-10-17T13:57:32.080Z,22.30
2022-10-17T14:00:02.848Z,22.50
2022-10-17T14:02:32.124Z,22.50
2022-10-17T14:05:18.758Z,22.30
2022-10-17T14:10:42.589Z,22.40
2022-10-17T14:13:20.959Z,22.00
2022-10-17T14:15:48.022Z,23.20
2022-10-17T14:18:20.458Z,23.40
2022-10-17T14:21:29.243Z,23.00
2022-10-17T14:23:39.131Z,23.30
2022-10-17T14:26:37.273Z,23.10
2022-10-17T14:29:27.710Z,23.00
2022-10-17T14:32:01.501Z,21.90
2022-10-17T14:34:37.462Z,22.00
2022-10-17T14:37:10.700Z,22.20
2022-10-17T14:39:37.830Z,22.40
2022-10-17T14:42:05.075Z,22.80
2022-10-17T14:44:36.206Z,22.50
2022-10-17T14:47:30.639Z,22.20
2022-10-17T14:50:06.538Z,22.30
2022-10-17T14:52:34.762Z,22.20
2022-10-17T14:55:26.264Z,22.40
2022-10-17T14:57:53.023Z,23.00
2022-10-17T15:00:22.467Z,22.50
2022-10-17T15:02:52.634Z,22.20
2022-10-17T15:05:23.081Z,23.00
2022-10-17T15:07:49.991Z,22.90
2022-10-17T15:10:34.209Z,23.00
2022-10-17T15:13:26.583Z,23.70
2022-10-17T15:15:52.005Z,23.40
2022-10-17T15:18:19.352Z,22.50
2022-10-17T15:20:46.188Z,22.20
2022-10-17T15:23:13.340Z,21.90
2022-10-17T15:25:40.190Z,22.20
2022-10-17T15:28:06.930Z,21.00
2022-10-17T15:30:36.744Z,20.90
2022-10-17T15:33:03.825Z,21.10
2022-10-17T15:35:31.073Z,20.80
2022-10-17T15:37:58.189Z,20.40
2022-10-17T15:40:30.424Z,19.80
2022-10-17T15:42:57.955Z,19.60
2022-10-17T15:45:25.154Z,19.40
2022-10-17T15:47:59.031Z,19.20
2022-10-17T15:50:38.496Z,19.30
2022-10-17T15:53:20.735Z,19.30
2022-10-17T15:55:50.865Z,19.20
2022-10-17T15:58:19.390Z,19.20
2022-10-17T16:00:46.800Z,19.30
2022-10-17T16:03:14.336Z,19.10
2022-10-17T16:05:41.456Z,19.20
2022-10-17T16:08:08.267Z,19.20
2022-10-17T16:10:37.114Z,19.40
2022-10-17T16:13:04.085Z,19.20
2022-10-17T16:15:30.945Z,19.10
2022-10-17T16:18:00.539Z,19.10
2022-10-17T16:20:29.859Z,19.00
2022-10-17T16:22:59.916Z,18.80
2022-10-17T16:25:29.236Z,18.70
2022-10-17T16:27:58.243Z,18.70
2022-10-17T16:30:26.534Z,18.70
2022-10-17T16:32:54.156Z,18.70
2022-10-17T16:35:24.138Z,18.60
2022-10-17T16:37:51.281Z,18.70
2022-10-17T16:40:18.432Z,18.50
2022-10-17T16:42:45.638Z,18.50
2022-10-17T16:45:18.615Z,18.40
2022-10-17T16:47:46.160Z,18.60
2022-10-17T16:50:13.386Z,18.40
2022-10-17T16:52:40.404Z,18.60
2022-10-17T16:55:08.014Z,18.40
2022-10-17T16:57:34.858Z,18.30
2022-10-17T17:00:01.848Z,18.30
2022-10-17T17:02:28.708Z,18.50
2022-10-17T17:04:55.529Z,18.40
2022-10-17T17:07:24.529Z,18.20
2022-10-17T17:09:51.612Z,18.10
2022-10-17T17:12:19.025Z,18.10
2022-10-17T17:14:46.183Z,17.90
2022-10-17T17:17:19.683Z,17.90
2022-10-17T17:19:57.513Z,17.90
2022-10-17T17:22:24.350Z,18.00
2022-10-17T17:24:51.302Z,18.20
2022-10-17T17:27:18.209Z,18.20
2022-10-17T17:29:46.289Z,18.30
2022-10-17T17:32:14.418Z,18.30
2022-10-17T17:34:41.190Z,18.40
2022-10-17T17:37:08.043Z,18.50
2022-10-17T17:39:34.968Z,18.40
2022-10-17T17:42:02.052Z,18.20
2022-10-17T17:44:28.997Z,18.20
2022-10-17T17:46:56.436Z,18.30
2022-10-17T17:49:24.152Z,18.40
2022-10-17T17:51:50.965Z,18.30
2022-10-17T17:54:17.941Z,18.20
2022-10-17T17:56:44.916Z,18.10
2022-10-17T17:59:13.096Z,17.90
2022-10-17T18:01:40.433Z,17.80
2022-10-17T18:04:08.910Z,17.70
2022-10-17T18:06:37.620Z,17.60
2022-10-17T18:09:05.519Z,17.50
2022-10-17T18:11:33.117Z,17.40
2022-10-17T18:14:02.741Z,17.30
2022-10-17T18:16:30.757Z,17.20
2022-10-17T18:19:02.652Z,17.20
2022-10-17T18:21:32.912Z,17.20
2022-10-17T18:24:00.277Z,17.20
2022-10-17T18:26:28.310Z,17.20
2022-10-17T18:28:55.392Z,17.20
2022-10-17T18:31:28.227Z,17.20
2022-10-17T18:33:56.945Z,17.10
2022-10-17T18:36:26.109Z,16.90
2022-10-17T18:38:53.524Z,16.90
2022-10-17T18:41:23.066Z,16.70
2022-10-17T18:43:51.295Z,16.60
2022-10-17T18:46:24.537Z,16.70
2022-10-17T18:48:52.013Z,16.50
2022-10-17T18:51:21.468Z,16.50
2022-10-17T18:53:51.015Z,16.50
2022-10-17T18:56:18.836Z,16.30
2022-10-17T18:58:45.957Z,16.40
2022-10-17T19:01:24.844Z,16.30
2022-10-17T19:03:53.272Z,16.10
2022-10-17T19:06:22.662Z,16.00
2022-10-17T19:08:50.033Z,16.00
2022-10-17T19:11:24.250Z,16.00
2022-10-17T19:13:52.219Z,16.00
2022-10-17T19:16:23.372Z,16.00
2022-10-17T19:18:52.228Z,16.10
2022-10-17T19:21:21.919Z,16.10
2022-10-17T19:23:51.565Z,16.10
2022-10-17T19:26:19.086Z,16.10
2022-10-17T19:28:46.037Z,16.00
2022-10-17T19:31:16.895Z,15.90
2022-10-17T19:33:44.790Z,15.80
2022-10-17T19:36:13.465Z,15.60
2022-10-17T19:38:40.346Z,15.40
2022-10-17T19:41:09.081Z,15.40
2022-10-17T19:43:37.637Z,15.40
2022-10-17T19:46:08.340Z,15.40
2022-10-17T19:48:37.406Z,14.70
2022-10-17T19:51:05.698Z,14.10
2022-10-17T19:53:32.801Z,13.90
2022-10-17T19:56:01.125Z,13.90
2022-10-17T19:58:28.560Z,14.00
2022-10-17T20:00:58.414Z,14.20
2022-10-17T20:03:25.824Z,14.10
2022-10-17T20:05:52.576Z,14.10
2022-10-17T20:08:19.504Z,14.10
2022-10-17T20:10:46.834Z,14.10
2022-10-17T20:13:14.411Z,14.10
2022-10-17T20:15:42.105Z,14.10
2022-10-17T20:18:09.788Z,14.00
2022-10-17T20:20:37.742Z,13.80
2022-10-17T20:23:04.972Z,13.60
2022-10-17T20:25:33.420Z,13.50
2022-10-17T20:28:00.270Z,13.30
2022-10-17T20:30:27.145Z,13.20
2022-10-17T20:32:55.598Z,13.20
2022-10-17T20:35:22.920Z,13.20
2022-10-17T20:37:49.971Z,13.20
2022-10-17T20:40:34.106Z,13.10
2022-10-17T20:43:02.080Z,13.10
2022-10-17T20:45:43.690Z,13.10
2022-10-17T20:48:16.254Z,13.10
2022-10-17T20:50:43.666Z,13.00
2022-10-17T20:53:35.583Z,13.00
2022-10-17T20:56:06.875Z,12.80
2022-10-17T20:58:33.830Z,12.70
2022-10-17T21:01:07.248Z,12.70
2022-10-17T21:03:43.876Z,12.80
2022-10-17T21:06:14.191Z,12.60
2022-10-17T21:08:41.064Z,12.60
2022-10-17T21:11:12.332Z,12.60
2022-10-17T21:13:39.727Z,12.50
2022-10-17T21:16:15.402Z,12.50
2022-10-17T21:18:42.830Z,12.50
2022-10-17T21:21:15.559Z,12.60
2022-10-17T21:23:44.371Z,12.50
2022-10-17T21:26:12.757Z,12.40
2022-10-17T21:28:40.878Z,12.40
2022-10-17T21:31:27.759Z,12.40
2022-10-17T21:33:57.021Z,12.20
2022-10-17T21:36:25.346Z,12.00
2022-10-17T21:38:54.997Z,11.70
2022-10-17T21:41:25.309Z,11.30
2022-10-17T21:43:54.305Z,11.40
2022-10-17T21:46:21.151Z,11.50
2022-10-17T21:48:48.658Z,11.80
2022-10-17T21:51:18.405Z,11.70
2022-10-17T21:53:46.148Z,11.70
2022-10-17T21:56:16.168Z,11.60
2022-10-17T21:58:44.178Z,11.40
2022-10-17T22:01:20.280Z,11.30
2022-10-17T22:03:50.079Z,11.40
2022-10-17T22:06:39.305Z,11.50
2022-10-17T22:09:11.323Z,11.50
2022-10-17T22:11:38.191Z,11.50
2022-10-17T22:14:07.792Z,11.20
2022-10-17T22:16:35.116Z,11.20
2022-10-17T22:19:06.260Z,11.10
2022-10-17T22:21:35.404Z,10.90
2022-10-17T22:24:05.402Z,11.00
2022-10-17T22:26:33.947Z,11.00
2022-10-17T22:29:01.453Z,10.90
2022-10-17T22:31:28.297Z,10.90
2022-10-17T22:33:55.675Z,10.70
2022-10-17T22:36:22.472Z,10.70
2022-10-17T22:38:49.280Z,10.90
2022-10-17T22:41:16.048Z,11.00
2022-10-17T22:43:42.952Z,10.80
2022-10-17T22:46:13.025Z,10.60
2022-10-17T22:48:39.945Z,10.60
2022-10-17T22:51:06.786Z,10.80
2022-10-17T22:53:35.252Z,10.70
2022-10-17T22:56:11.985Z,10.60
2022-10-17T22:58:39.330Z,10.60
2022-10-17T23:01:07.974Z,10.50
2022-10-17T23:03:35.207Z,10.40
2022-10-17T23:06:02.279Z,10.40
2022-10-17T23:08:29.122Z,10.40
2022-10-17T23:10:56.215Z,10.30
2022-10-17T23:13:23.242Z,10.20
2022-10-17T23:15:52.451Z,10.20
2022-10-17T23:18:19.747Z,10.10
2022-10-17T23:20:46.836Z,10.10
2022-10-17T23:23:13.724Z,10.40
2022-10-17T23:25:41.000Z,10.40
2022-10-17T23:28:08.758Z,10.30
2022-10-17T23:30:36.278Z,10.20
2022-10-17T23:33:03.340Z,10.10
2022-10-17T23:35:30.158Z,10.10
2022-10-17T23:37:56.940Z,10.00
2022-10-17T23:40:23.939Z,10.00
2022-10-17T23:42:50.663Z,9.90
2022-10-17T23:45:18.179Z,10.00
2022-10-17T23:47:45.001Z,10.00
2022-10-17T23:50:12.441Z,9.90
2022-10-17T23:52:39.391Z,9.80
2022-10-17T23:55:06.820Z,9.80
2022-10-17T23:57:34.196Z,9.80
